Time;durP1;ratioP1;P1;durP2;ratioP2;P2;SDS_P1;SDS_P2;PMS_P1;PMS_P2;Temp;Humidity;BMP_temperature;BMP_pressure;BME280_temperature;BME280_humidity;BME280_pressure;Samples;Min_cycle;Max_cycle;Signal;HPM_P1;HPM_P2
2022/09/07 00:00:41;;;;;;;;;;;;;;;21.77;26.89;98431.69;5058941;28;1770;-79
2022/09/07 00:03:06;;;;;;;;;;;;;;;21.62;27.14;98436.06;5042959;28;1190;-79
2022/09/07 00:05:32;;;;;;;;;;;;;;;21.81;26.82;98423.94;5059992;28;1711;-80
2022/09/07 00:07:57;;;;;;;;;;;;;;;22.35;25.95;98431.28;5039573;28;865;-79
2022/09/07 00:10:23;;;;;;;;;;;;;;;22.57;25.56;98432.38;5057375;28;902;-79
2022/09/07 00:12:49;;;;;;;;;;;;;;;22.30;26.01;98432.59;5039047;28;975;-78
2022/09/07 00:15:14;;;;;;;;;;;;;;;21.84;26.73;98431.53;5052770;28;1748;-79
2022/09/07 00:17:40;;;;;;;;;;;;;;;21.74;26.96;98426.09;5077130;28;1914;-80
2022/09/07 00:20:06;;;;;;;;;;;;;;;21.69;26.87;98418.91;5054637;28;910;-79
2022/09/07 00:22:32;;;;;;;;;;;;;;;21.78;26.82;98424.78;5005222;28;915;-79
2022/09/07 00:24:57;;;;;;;;;;;;;;;22.06;26.83;98417.72;5032801;28;1708;-79
2022/09/07 00:27:23;;;;;;;;;;;;;;;22.24;26.22;98423.03;5054812;28;946;-80
2022/09/07 00:29:48;;;;;;;;;;;;;;;22.60;25.69;98420.16;5054455;28;1002;-79
2022/09/07 00:32:14;;;;;;;;;;;;;;;22.18;26.12;98424.78;5054983;28;934;-78
2022/09/07 00:34:40;;;;;;;;;;;;;;;21.97;26.41;98428.06;5052270;28;1960;-79
2022/09/07 00:37:05;;;;;;;;;;;;;;;21.77;26.66;98426.03;5038254;28;1922;-79
2022/09/07 00:39:32;;;;;;;;;;;;;;;21.70;26.98;98431.03;5037609;28;1006;-79
2022/09/07 00:41:58;;;;;;;;;;;;;;;22.12;26.23;98429.34;5054459;28;962;-79
2022/09/07 00:44:41;;;;;;;;;;;;;;;22.28;26.25;98420.91;5027644;28;1732;-79
2022/09/07 00:47:14;;;;;;;;;;;;;;;22.11;26.20;98416.44;5034345;28;997;-79
2022/09/07 00:49:40;;;;;;;;;;;;;;;22.02;26.74;98424.69;5018596;28;893;-79
2022/09/07 00:52:06;;;;;;;;;;;;;;;21.77;26.76;98419.56;5017837;28;1205;-79
2022/09/07 00:54:32;;;;;;;;;;;;;;;21.73;26.77;98416.81;5027755;28;1693;-80
2022/09/07 00:56:58;;;;;;;;;;;;;;;22.05;26.52;98421.00;5054168;28;1988;-79
2022/09/07 00:59:24;;;;;;;;;;;;;;;22.27;26.21;98424.16;5036919;28;1889;-79
2022/09/07 01:01:49;;;;;;;;;;;;;;;22.43;25.95;98426.25;5037523;28;1227;-80
2022/09/07 01:04:15;;;;;;;;;;;;;;;21.90;26.86;98422.53;5025220;28;1834;-79
2022/09/07 01:06:42;;;;;;;;;;;;;;;21.74;26.81;98426.09;5014824;28;902;-80
2022/09/07 01:09:11;;;;;;;;;;;;;;;21.82;26.58;98422.69;5014546;28;901;-79
2022/09/07 01:11:37;;;;;;;;;;;;;;;21.66;26.95;98422.63;5014818;28;898;-79
2022/09/07 01:14:05;;;;;;;;;;;;;;;21.89;26.58;98423.78;5014030;28;1725;-79
2022/09/07 01:16:31;;;;;;;;;;;;;;;21.72;27.00;98428.56;5014262;28;1975;-79
2022/09/07 01:19:02;;;;;;;;;;;;;;;22.30;26.31;98428.97;5014707;28;826;-80
2022/09/07 01:21:37;;;;;;;;;;;;;;;22.22;26.09;98422.66;5014372;28;919;-79
2022/09/07 01:24:05;;;;;;;;;;;;;;;22.26;26.16;98425.41;5038752;28;1723;-79
2022/09/07 01:26:49;;;;;;;;;;;;;;;21.93;26.45;98421.66;5076610;28;918;-80
2022/09/07 01:29:35;;;;;;;;;;;;;;;21.90;26.51;98417.66;5076374;28;923;-79
2022/09/07 01:32:21;;;;;;;;;;;;;;;21.70;26.84;98417.66;5075653;28;975;-79
2022/09/07 01:34:48;;;;;;;;;;;;;;;22.12;26.41;98425.72;5021126;28;1948;-79
2022/09/07 01:37:15;;;;;;;;;;;;;;;22.27;26.40;98424.16;4997978;28;1911;-79
2022/09/07 01:39:55;;;;;;;;;;;;;;;22.21;26.24;98423.91;4997843;28;984;-79
2022/09/07 01:42:22;;;;;;;;;;;;;;;21.78;27.09;98416.28;4997816;28;980;-79
2022/09/07 01:44:55;;;;;;;;;;;;;;;21.94;26.44;98417.59;5008519;28;1730;-80
2022/09/07 01:47:26;;;;;;;;;;;;;;;21.77;26.92;98414.69;5033840;28;984;-79
2022/09/07 01:49:57;;;;;;;;;;;;;;;22.03;26.62;98418.59;5033848;28;908;-79
2022/09/07 01:52:25;;;;;;;;;;;;;;;22.10;26.59;98414.81;5017406;28;1076;-79
2022/09/07 01:54:51;;;;;;;;;;;;;;;22.18;26.25;98415.50;5032015;28;1633;-79
2022/09/07 01:57:18;;;;;;;;;;;;;;;22.01;26.71;98417.44;5020237;28;1914;-79
2022/09/07 01:59:47;;;;;;;;;;;;;;;21.83;26.88;98404.44;5021152;28;880;-79
2022/09/07 02:02:15;;;;;;;;;;;;;;;21.85;27.04;98410.47;5017418;28;1066;-79
2022/09/07 02:04:44;;;;;;;;;;;;;;;21.70;27.07;98414.84;5000743;28;1923;-79
2022/09/07 02:07:29;;;;;;;;;;;;;;;21.74;27.31;98409.91;4997793;28;1119;-79
2022/09/07 02:10:04;;;;;;;;;;;;;;;22.11;26.66;98405.09;4981848;28;955;-79
2022/09/07 02:12:33;;;;;;;;;;;;;;;22.29;26.46;98405.50;4997869;28;932;-79
2022/09/07 02:15:00;;;;;;;;;;;;;;;22.18;26.67;98407.78;4996859;28;1879;-80
2022/09/07 02:17:28;;;;;;;;;;;;;;;22.10;26.74;98397.81;4997824;28;1891;-79
2022/09/07 02:19:55;;;;;;;;;;;;;;;21.90;26.95;98399.88;4981656;28;1032;-79
2022/09/07 02:22:24;;;;;;;;;;;;;;;21.90;27.11;98402.69;4923717;29;990;-79
2022/09/07 02:24:51;;;;;;;;;;;;;;;22.20;26.50;98399.63;4929220;29;1716;-79
2022/09/07 02:27:18;;;;;;;;;;;;;;;22.15;26.70;98400.16;4920820;29;943;-80
2022/09/07 02:29:43;;;;;;;;;;;;;;;21.92;27.07;98403.06;4904872;29;824;-80
2022/09/07 02:32:09;;;;;;;;;;;;;;;21.93;26.93;98399.00;4906311;29;1025;-80
2022/09/07 02:34:34;;;;;;;;;;;;;;;21.78;27.08;98402.13;4947102;29;1898;-79
2022/09/07 02:37:00;;;;;;;;;;;;;;;21.78;27.05;98404.97;4944557;28;1911;-79
2022/09/07 02:39:25;;;;;;;;;;;;;;;21.96;26.99;98406.59;5016969;28;987;-80
2022/09/07 02:41:51;;;;;;;;;;;;;;;22.42;26.53;98408.44;4996493;28;1710;-79
2022/09/07 02:44:20;;;;;;;;;;;;;;;22.26;26.27;98400.69;4997813;28;817;-80
2022/09/07 02:46:57;;;;;;;;;;;;;;;22.04;26.99;98405.22;4997259;28;958;-79
2022/09/07 02:49:41;;;;;;;;;;;;;;;21.94;26.94;98400.59;4997331;28;1000;-80
2022/09/07 02:52:07;;;;;;;;;;;;;;;21.80;27.29;98405.31;4996530;28;2276;-79
2022/09/07 02:54:42;;;;;;;;;;;;;;;21.76;27.18;98400.97;5036389;28;933;-79
2022/09/07 02:57:21;;;;;;;;;;;;;;;21.80;27.30;98402.47;5036296;28;1983;-79
2022/09/07 02:59:50;;;;;;;;;;;;;;;22.29;26.62;98397.00;5036486;28;924;-80
2022/09/07 03:02:15;;;;;;;;;;;;;;;22.37;26.57;98400.44;5015496;28;1709;-79
2022/09/07 03:04:53;;;;;;;;;;;;;;;21.96;26.85;98404.56;5016415;28;993;-79
2022/09/07 03:07:23;;;;;;;;;;;;;;;21.75;27.37;98400.16;5015980;28;1045;-79
2022/09/07 03:09:49;;;;;;;;;;;;;;;21.75;27.23;98403.00;5016703;28;1009;-80
2022/09/07 03:12:14;;;;;;;;;;;;;;;21.67;27.47;98407.22;5024341;28;1792;-80
2022/09/07 03:14:40;;;;;;;;;;;;;;;21.77;27.53;98402.56;5055973;28;926;-79
2022/09/07 03:17:06;;;;;;;;;;;;;;;21.86;27.33;98411.25;5039884;28;1903;-79
2022/09/07 03:19:31;;;;;;;;;;;;;;;22.31;26.63;98399.38;5055163;28;1775;-79
2022/09/07 03:21:56;;;;;;;;;;;;;;;22.17;26.66;98409.00;5056731;28;951;-79
2022/09/07 03:24:22;;;;;;;;;;;;;;;22.00;26.88;98410.16;5055952;28;969;-80
2022/09/07 03:26:47;;;;;;;;;;;;;;;21.91;26.92;98404.28;5055961;28;805;-80
2022/09/07 03:29:13;;;;;;;;;;;;;;;21.73;27.39;98404.69;5034730;28;1768;-79
2022/09/07 03:31:39;;;;;;;;;;;;;;;21.81;27.41;98409.78;5036142;28;912;-79
2022/09/07 03:34:04;;;;;;;;;;;;;;;22.09;26.60;98416.06;5035762;28;990;-79
2022/09/07 03:36:30;;;;;;;;;;;;;;;22.43;26.13;98414.91;5035667;28;1913;-79
2022/09/07 03:38:55;;;;;;;;;;;;;;;22.15;26.47;98416.34;5019518;28;1622;-79
2022/09/07 03:41:21;;;;;;;;;;;;;;;21.93;27.17;98404.66;5019352;28;1425;-79
2022/09/07 03:43:46;;;;;;;;;;;;;;;21.80;26.96;98408.16;5044488;28;1602;-79
2022/09/07 03:46:14;;;;;;;;;;;;;;;21.90;27.02;98419.69;5057557;28;927;-79
2022/09/07 03:48:40;;;;;;;;;;;;;;;21.68;27.29;98405.97;5056102;28;1011;-79
2022/09/07 03:51:06;;;;;;;;;;;;;;;21.77;26.99;98409.03;5056513;28;1019;-79
2022/09/07 03:53:32;;;;;;;;;;;;;;;21.75;27.33;98420.00;5057595;28;942;-79
2022/09/07 03:56:01;;;;;;;;;;;;;;;22.18;26.72;98416.28;5057810;28;1910;-79
2022/09/07 03:58:27;;;;;;;;;;;;;;;22.34;26.27;98424.81;5055261;28;957;-79
2022/09/07 04:00:53;;;;;;;;;;;;;;;22.11;26.61;98427.75;5058049;28;1761;-79
2022/09/07 04:03:18;;;;;;;;;;;;;;;21.89;27.21;98426.59;5057640;28;863;-79
2022/09/07 04:05:44;;;;;;;;;;;;;;;21.79;27.05;98431.25;5057403;28;894;-79
2022/09/07 04:08:10;;;;;;;;;;;;;;;21.75;27.44;98428.47;5056097;28;1168;-79
2022/09/07 04:10:36;;;;;;;;;;;;;;;21.71;27.17;98430.63;5057276;28;850;-79
2022/09/07 04:13:01;;;;;;;;;;;;;;;22.26;26.72;98428.25;5057397;28;987;-79
2022/09/07 04:15:27;;;;;;;;;;;;;;;22.39;26.41;98431.22;5057345;28;922;-79
2022/09/07 04:17:53;;;;;;;;;;;;;;;22.36;26.21;98439.34;5056026;28;1902;-80
2022/09/07 04:20:18;;;;;;;;;;;;;;;22.06;26.63;98436.75;5056199;28;1135;-79
2022/09/07 04:22:46;;;;;;;;;;;;;;;21.84;26.84;98437.22;5056793;28;990;-79
2022/09/07 04:25:11;;;;;;;;;;;;;;;21.87;27.12;98437.59;5055552;28;1003;-79
2022/09/07 04:27:37;;;;;;;;;;;;;;;21.72;27.25;98443.53;5057051;28;816;-79
2022/09/07 04:30:02;;;;;;;;;;;;;;;21.90;27.12;98442.38;5056664;28;1030;-79
2022/09/07 04:32:28;;;;;;;;;;;;;;;22.41;26.31;98445.75;5056782;28;855;-79
2022/09/07 04:34:53;;;;;;;;;;;;;;;22.48;25.94;98445.56;5039079;28;1369;-80
2022/09/07 04:37:19;;;;;;;;;;;;;;;22.03;27.01;98451.81;5034787;28;1902;-79
2022/09/07 04:39:44;;;;;;;;;;;;;;;21.72;27.14;98457.69;5034665;28;927;-79
2022/09/07 04:42:10;;;;;;;;;;;;;;;21.73;27.12;98453.63;4975414;28;877;-79
2022/09/07 04:44:35;;;;;;;;;;;;;;;21.96;26.91;98452.75;4975799;28;1018;-80
2022/09/07 04:47:01;;;;;;;;;;;;;;;21.70;27.25;98448.81;4959226;28;1085;-80
2022/09/07 04:49:26;;;;;;;;;;;;;;;21.75;27.27;98448.31;4975561;28;862;-79
2022/09/07 04:51:52;;;;;;;;;;;;;;;22.08;26.91;98451.28;4975557;28;938;-79
2022/09/07 04:54:17;;;;;;;;;;;;;;;22.28;26.78;98460.59;4959355;28;967;-79
2022/09/07 04:56:43;;;;;;;;;;;;;;;22.21;26.75;98455.06;4975812;28;1899;-80
2022/09/07 04:59:08;;;;;;;;;;;;;;;21.90;27.19;98451.66;4975526;28;1232;-79
2022/09/07 05:01:34;;;;;;;;;;;;;;;21.85;27.24;98458.63;4975611;28;1339;-79
2022/09/07 05:04:00;;;;;;;;;;;;;;;21.79;27.24;98451.88;4975652;28;949;-79
2022/09/07 05:06:25;;;;;;;;;;;;;;;21.49;28.00;98463.41;4975592;28;976;-79
2022/09/07 05:08:51;;;;;;;;;;;;;;;21.92;27.40;98459.75;4987788;28;928;-79
2022/09/07 05:11:17;;;;;;;;;;;;;;;22.22;26.86;98456.66;5014447;28;920;-80
2022/09/07 05:13:42;;;;;;;;;;;;;;;22.26;26.69;98468.72;4998147;28;977;-79
2022/09/07 05:16:11;;;;;;;;;;;;;;;22.14;27.05;98465.78;5014301;28;1898;-79
2022/09/07 05:18:37;;;;;;;;;;;;;;;21.81;27.56;98471.25;5002364;28;1014;-79
2022/09/07 05:21:09;;;;;;;;;;;;;;;22.00;27.38;98461.19;5055052;28;874;-80
2022/09/07 05:23:35;;;;;;;;;;;;;;;21.98;27.32;98466.50;5055248;28;806;-79
2022/09/07 05:26:00;;;;;;;;;;;;;;;22.26;27.10;98465.09;5055895;28;1140;-79
2022/09/07 05:28:26;;;;;;;;;;;;;;;22.26;26.87;98460.22;5054956;28;1252;-80
2022/09/07 05:30:51;;;;;;;;;;;;;;;22.03;27.08;98460.31;5055860;28;1103;-80
2022/09/07 05:33:17;;;;;;;;;;;;;;;22.09;27.34;98469.91;5060452;28;857;-80
2022/09/07 05:35:42;;;;;;;;;;;;;;;21.85;27.69;98464.28;5060302;28;949;-79
2022/09/07 05:38:08;;;;;;;;;;;;;;;21.93;27.71;98464.16;5060164;28;1898;-79
2022/09/07 05:40:33;;;;;;;;;;;;;;;21.82;27.48;98461.56;5060388;28;730;-79
2022/09/07 05:42:59;;;;;;;;;;;;;;;21.78;27.91;98467.28;5060256;28;950;-79
2022/09/07 05:45:24;;;;;;;;;;;;;;;21.61;27.99;98471.28;5060524;28;912;-79
2022/09/07 05:47:50;;;;;;;;;;;;;;;22.17;27.20;98464.88;5060278;28;942;-79
2022/09/07 05:50:16;;;;;;;;;;;;;;;22.40;26.71;98464.00;5058995;28;1215;-79
2022/09/07 05:52:41;;;;;;;;;;;;;;;22.21;27.00;98466.41;5058677;28;1086;-79
2022/09/07 05:55:07;;;;;;;;;;;;;;;21.97;27.47;98467.72;5059709;28;810;-80
2022/09/07 05:57:33;;;;;;;;;;;;;;;21.77;27.67;98477.03;5059768;28;1964;-80
2022/09/07 05:59:58;;;;;;;;;;;;;;;21.90;27.92;98467.84;5059811;28;928;-78
2022/09/07 06:02:24;;;;;;;;;;;;;;;21.81;28.04;98483.41;5078028;28;1206;-79
2022/09/07 06:04:49;;;;;;;;;;;;;;;21.92;27.55;98473.91;5061735;28;933;-79
2022/09/07 06:07:15;;;;;;;;;;;;;;;21.69;28.11;98481.22;5080125;28;887;-79
2022/09/07 06:09:40;;;;;;;;;;;;;;;21.82;27.67;98484.22;5045298;28;1154;-80
2022/09/07 06:12:06;;;;;;;;;;;;;;;22.10;27.69;98483.66;5079512;28;890;-79
2022/09/07 06:14:31;;;;;;;;;;;;;;;22.37;27.02;98485.50;5079368;28;900;-80
2022/09/07 06:16:57;;;;;;;;;;;;;;;22.64;26.57;98493.84;5061762;28;1914;-79
2022/09/07 06:19:22;;;;;;;;;;;;;;;22.55;27.00;98496.47;5079627;28;897;-79
2022/09/07 06:21:48;;;;;;;;;;;;;;;22.12;27.30;98486.03;5079520;28;1060;-79
2022/09/07 06:24:13;;;;;;;;;;;;;;;22.08;27.75;98490.97;5061615;28;986;-79
2022/09/07 06:26:39;;;;;;;;;;;;;;;22.01;27.67;98496.78;5079145;28;775;-80
2022/09/07 06:29:04;;;;;;;;;;;;;;;21.85;28.07;98501.13;5061042;28;1135;-79
2022/09/07 06:31:30;;;;;;;;;;;;;;;21.87;27.83;98502.75;5061339;28;980;-80
2022/09/07 06:33:56;;;;;;;;;;;;;;;21.83;27.99;98505.63;5061769;28;1186;-79
2022/09/07 06:36:22;;;;;;;;;;;;;;;21.89;28.19;98517.25;5079327;28;1963;-79
2022/09/07 06:38:48;;;;;;;;;;;;;;;21.92;27.95;98510.75;5061322;28;953;-80
2022/09/07 06:41:16;;;;;;;;;;;;;;;21.68;28.37;98513.59;5061027;28;967;-80
2022/09/07 06:43:42;;;;;;;;;;;;;;;21.83;28.10;98503.59;5060103;28;1058;-79
2022/09/07 06:46:08;;;;;;;;;;;;;;;22.35;27.54;98499.34;5061396;28;867;-79
2022/09/07 06:48:33;;;;;;;;;;;;;;;22.46;27.00;98508.41;5060812;28;904;-80
2022/09/07 06:51:00;;;;;;;;;;;;;;;21.89;27.92;98511.59;5078893;28;886;-79
2022/09/07 06:53:26;;;;;;;;;;;;;;;21.94;28.01;98513.94;5044572;28;1201;-79
2022/09/07 06:55:52;;;;;;;;;;;;;;;21.75;28.21;98519.13;5061097;28;1910;-80
2022/09/07 06:58:17;;;;;;;;;;;;;;;21.82;28.02;98519.00;5061332;28;884;-80
2022/09/07 07:00:43;;;;;;;;;;;;;;;21.79;28.40;98525.53;5078539;28;1188;-80
2022/09/07 07:03:08;;;;;;;;;;;;;;;21.78;28.16;98518.28;5078449;28;816;-80
2022/09/07 07:05:34;;;;;;;;;;;;;;;21.66;28.65;98518.91;5078180;28;901;-79
2022/09/07 07:07:59;;;;;;;;;;;;;;;21.69;28.51;98523.69;5061047;28;894;-80
2022/09/07 07:10:24;;;;;;;;;;;;;;;22.30;27.39;98517.66;5078670;28;802;-79
2022/09/07 07:12:51;;;;;;;;;;;;;;;22.46;27.50;98510.44;5078475;28;944;-80
2022/09/07 07:15:17;;;;;;;;;;;;;;;21.92;28.25;98516.41;5077971;28;876;-79
2022/09/07 07:17:43;;;;;;;;;;;;;;;21.81;28.37;98508.09;5060473;28;1906;-79
2022/09/07 07:20:08;;;;;;;;;;;;;;;21.90;28.19;98501.84;5060697;28;1225;-79
2022/09/07 07:22:34;;;;;;;;;;;;;;;21.92;28.34;98516.41;5060349;28;1153;-79
2022/09/07 07:24:59;;;;;;;;;;;;;;;21.74;28.33;98509.03;5060487;28;943;-79
2022/09/07 07:27:25;;;;;;;;;;;;;;;21.84;28.22;98505.19;5078430;28;872;-79
2022/09/07 07:29:52;;;;;;;;;;;;;;;22.28;27.51;98514.47;5060617;28;937;-79
2022/09/07 07:32:18;;;;;;;;;;;;;;;22.35;27.50;98517.13;5077833;28;912;-79
2022/09/07 07:34:43;;;;;;;;;;;;;;;22.28;27.56;98517.31;5078007;28;871;-79
2022/09/07 07:37:09;;;;;;;;;;;;;;;21.96;28.31;98514.28;5077910;28;2001;-79
2022/09/07 07:39:34;;;;;;;;;;;;;;;21.75;28.39;98513.47;5078081;28;1046;-79
2022/09/07 07:42:00;;;;;;;;;;;;;;;21.90;28.26;98518.84;5077801;28;856;-79
2022/09/07 07:44:25;;;;;;;;;;;;;;;21.72;28.63;98519.22;5077769;28;930;-79
2022/09/07 07:46:51;;;;;;;;;;;;;;;21.68;28.62;98513.59;5077878;28;997;-79
2022/09/07 07:49:16;;;;;;;;;;;;;;;21.71;28.60;98514.75;5077265;28;985;-79
2022/09/07 07:51:42;;;;;;;;;;;;;;;21.91;28.22;98497.78;5077798;28;797;-79
2022/09/07 07:54:07;;;;;;;;;;;;;;;22.25;28.14;98506.81;5058807;28;977;-79
2022/09/07 07:56:32;;;;;;;;;;;;;;;22.59;27.28;98502.88;5077664;28;1909;-79
2022/09/07 07:59:00;;;;;;;;;;;;;;;22.10;28.15;98494.97;5077922;28;1110;-79
2022/09/07 08:01:25;;;;;;;;;;;;;;;21.94;28.28;98505.44;5077300;28;1031;-79
2022/09/07 08:03:51;;;;;;;;;;;;;;;21.92;28.29;98502.25;5077360;28;860;-79
2022/09/07 08:06:18;;;;;;;;;;;;;;;21.78;28.66;98509.78;5077422;28;794;-79
2022/09/07 08:08:44;;;;;;;;;;;;;;;21.83;28.43;98497.94;5059887;28;960;-79
2022/09/07 08:11:15;;;;;;;;;;;;;;;21.78;28.45;98495.59;5059747;28;989;-79
2022/09/07 08:13:41;;;;;;;;;;;;;;;21.84;28.43;98499.53;5077888;28;931;-79
2022/09/07 08:16:07;;;;;;;;;;;;;;;21.68;28.77;98502.28;5059561;28;1898;-79
2022/09/07 08:18:32;;;;;;;;;;;;;;;21.65;29.09;98497.47;5058959;28;989;-79
2022/09/07 08:20:59;;;;;;;;;;;;;;;22.17;28.23;98496.06;5077463;28;898;-79
2022/09/07 08:23:24;;;;;;;;;;;;;;;22.14;28.10;98496.97;5077217;28;930;-79
2022/09/07 08:25:53;;;;;;;;;;;;;;;22.04;28.50;98501.56;5058807;28;839;-79
2022/09/07 08:28:19;;;;;;;;;;;;;;;21.97;28.71;98490.41;5059335;28;1098;-79
2022/09/07 08:30:45;;;;;;;;;;;;;;;21.83;28.66;98495.09;5059412;28;1011;-79
2022/09/07 08:33:10;;;;;;;;;;;;;;;21.83;28.82;98500.78;5077131;28;976;-79
2022/09/07 08:35:35;;;;;;;;;;;;;;;21.78;28.67;98504.09;5059603;28;808;-79
2022/09/07 08:38:01;;;;;;;;;;;;;;;21.77;28.75;98498.88;5058307;28;1973;-79
2022/09/07 08:40:26;;;;;;;;;;;;;;;21.69;28.90;98503.88;5077022;28;939;-79
2022/09/07 08:42:52;;;;;;;;;;;;;;;22.03;28.72;98502.81;5059107;28;1006;-79
2022/09/07 08:45:23;;;;;;;;;;;;;;;22.30;28.05;98506.31;5076846;28;880;-79
2022/09/07 08:47:49;;;;;;;;;;;;;;;22.40;27.81;98509.34;5058856;28;1182;-79
2022/09/07 08:50:21;;;;;;;;;;;;;;;22.18;28.24;98506.19;5058703;28;1130;-79
2022/09/07 08:52:48;;;;;;;;;;;;;;;21.96;28.51;98511.44;5077133;28;1022;-79
2022/09/07 08:55:16;;;;;;;;;;;;;;;22.03;28.61;98502.81;5059442;28;958;-79
2022/09/07 08:57:43;;;;;;;;;;;;;;;21.89;28.68;98505.94;5059140;28;1910;-79
2022/09/07 09:00:10;;;;;;;;;;;;;;;21.83;28.83;98506.44;5058739;28;973;-80
2022/09/07 09:02:36;;;;;;;;;;;;;;;21.64;29.19;98503.56;5076429;28;892;-79
2022/09/07 09:05:02;;;;;;;;;;;;;;;21.84;28.77;98499.53;5058441;28;899;-79
2022/09/07 09:07:28;;;;;;;;;;;;;;;21.92;28.63;98496.56;5017968;28;1073;-79
2022/09/07 09:10:12;;;;;;;;;;;;;;;21.67;29.18;98495.03;5034701;28;957;-79
2022/09/07 09:12:40;;;;;;;;;;;;;;;21.81;28.86;98488.25;5034724;28;910;-80
2022/09/07 09:15:16;;;;;;;;;;;;;;;22.12;28.59;98474.69;5034589;28;981;-79
2022/09/07 09:17:53;;;;;;;;;;;;;;;22.38;28.13;98467.25;5017827;28;1910;-79
2022/09/07 09:20:22;;;;;;;;;;;;;;;22.26;28.30;98474.41;5017849;28;937;-79
2022/09/07 09:22:47;;;;;;;;;;;;;;;22.11;28.66;98467.44;5034406;28;892;-79
2022/09/07 09:25:20;;;;;;;;;;;;;;;21.92;28.74;98485.25;5034389;28;930;-79
2022/09/07 09:27:46;;;;;;;;;;;;;;;21.83;28.85;98474.47;5034903;28;846;-80
2022/09/07 09:30:12;;;;;;;;;;;;;;;21.93;28.73;98467.00;5017942;28;845;-79
2022/09/07 09:32:40;;;;;;;;;;;;;;;21.77;28.90;98471.34;5034249;28;808;-79
2022/09/07 09:35:21;;;;;;;;;;;;;;;21.64;29.40;98473.22;4994992;28;952;-79
2022/09/07 09:37:46;;;;;;;;;;;;;;;21.80;28.94;98464.81;4999276;28;1902;-79
2022/09/07 09:40:22;;;;;;;;;;;;;;;21.84;28.77;98459.06;4998193;28;896;-79
2022/09/07 09:42:47;;;;;;;;;;;;;;;21.74;28.90;98460.09;4997930;28;1356;-79
2022/09/07 09:45:19;;;;;;;;;;;;;;;21.78;28.95;98461.63;5014673;28;920;-79
2022/09/07 09:47:49;;;;;;;;;;;;;;;21.72;28.95;98463.38;5033916;28;951;-79
2022/09/07 09:50:16;;;;;;;;;;;;;;;22.18;28.79;98461.63;5017999;28;890;-79
2022/09/07 09:52:41;;;;;;;;;;;;;;;22.47;28.00;98458.94;5033991;28;1083;-79
2022/09/07 09:55:13;;;;;;;;;;;;;;;22.19;28.39;98457.56;5017604;28;1308;-79
2022/09/07 09:57:45;;;;;;;;;;;;;;;22.16;28.87;98466.94;5017289;28;1910;-79
2022/09/07 10:00:13;;;;;;;;;;;;;;;22.10;28.48;98451.66;5017630;28;1219;-78
2022/09/07 10:02:39;;;;;;;;;;;;;;;21.99;28.73;98465.25;5034543;28;939;-80
2022/09/07 10:05:24;;;;;;;;;;;;;;;21.81;28.87;98451.44;5037679;28;894;-79
2022/09/07 10:07:50;;;;;;;;;;;;;;;21.63;29.26;98459.50;5073643;28;2092;-79
2022/09/07 10:10:16;;;;;;;;;;;;;;;21.68;29.42;98467.50;5040310;28;986;-79
2022/09/07 10:12:41;;;;;;;;;;;;;;;21.66;29.50;98465.09;5057151;28;982;-79
2022/09/07 10:15:07;;;;;;;;;;;;;;;21.62;29.44;98469.25;5057148;28;1609;-79
2022/09/07 10:17:32;;;;;;;;;;;;;;;21.55;29.57;98464.50;5075908;28;1914;-79
2022/09/07 10:20:21;;;;;;;;;;;;;;;21.65;29.49;98459.84;5079679;28;827;-79
2022/09/07 10:22:52;;;;;;;;;;;;;;;22.06;28.64;98459.41;5079218;28;1176;-79
2022/09/07 10:25:38;;;;;;;;;;;;;;;22.15;28.39;98456.84;5079196;28;950;-79
2022/09/07 10:28:03;;;;;;;;;;;;;;;21.99;29.01;98465.25;5078489;28;846;-79
2022/09/07 10:30:31;;;;;;;;;;;;;;;21.91;28.86;98460.94;5061693;28;910;-79
2022/09/07 10:33:09;;;;;;;;;;;;;;;21.96;29.02;98463.28;5078083;28;918;-79
2022/09/07 10:35:39;;;;;;;;;;;;;;;21.83;29.29;98458.28;5061672;28;866;-79
2022/09/07 10:38:15;;;;;;;;;;;;;;;21.85;29.31;98461.47;5078189;28;1982;-79
2022/09/07 10:40:46;;;;;;;;;;;;;;;21.75;29.38;98456.81;5078256;28;927;-79
2022/09/07 10:43:12;;;;;;;;;;;;;;;21.85;28.82;98443.66;5079397;28;923;-79
2022/09/07 10:45:56;;;;;;;;;;;;;;;21.87;28.75;98448.91;5079295;28;899;-79
2022/09/07 10:48:30;;;;;;;;;;;;;;;21.72;29.24;98452.03;5078939;28;889;-79
2022/09/07 10:50:57;;;;;;;;;;;;;;;22.00;29.02;98449.84;5077865;28;871;-79
2022/09/07 10:53:25;;;;;;;;;;;;;;;22.15;28.77;98439.81;5061287;28;884;-79
2022/09/07 10:56:11;;;;;;;;;;;;;;;22.07;28.61;98444.84;5079046;28;910;-79
2022/09/07 10:58:37;;;;;;;;;;;;;;;22.07;28.89;98444.00;5078753;28;1153;-79
2022/09/07 11:01:19;;;;;;;;;;;;;;;21.84;29.13;98451.38;5078537;28;1142;-79
2022/09/07 11:03:47;;;;;;;;;;;;;;;21.81;29.39;98449.44;5079862;28;862;-79
2022/09/07 11:06:15;;;;;;;;;;;;;;;21.91;28.94;98455.28;5096715;28;998;-79
2022/09/07 11:08:55;;;;;;;;;;;;;;;21.72;29.13;98449.19;5079893;28;908;-79
2022/09/07 11:11:31;;;;;;;;;;;;;;;21.74;29.44;98438.22;5079701;28;905;-79
2022/09/07 11:14:00;;;;;;;;;;;;;;;21.91;29.17;98441.13;5079721;28;894;-79
2022/09/07 11:16:29;;;;;;;;;;;;;;;21.90;29.37;98439.53;5079621;28;1897;-79
2022/09/07 11:18:56;;;;;;;;;;;;;;;22.42;28.46;98441.66;5079998;28;983;-79
2022/09/07 11:21:23;;;;;;;;;;;;;;;22.36;28.47;98432.88;5062588;28;988;-79
2022/09/07 11:23:48;;;;;;;;;;;;;;;22.06;28.72;98436.75;5079614;28;946;-79
2022/09/07 11:26:31;;;;;;;;;;;;;;;22.01;28.88;98425.94;5096243;28;1039;-79
2022/09/07 11:29:19;;;;;;;;;;;;;;;21.94;29.05;98423.25;5078856;28;873;-79
2022/09/07 11:31:47;;;;;;;;;;;;;;;21.94;28.92;98424.06;5016121;28;959;-79
2022/09/07 11:34:26;;;;;;;;;;;;;;;21.94;29.08;98429.72;4996727;28;981;-79
2022/09/07 11:36:56;;;;;;;;;;;;;;;21.73;29.19;98430.97;4996483;28;1997;-79
2022/09/07 11:39:25;;;;;;;;;;;;;;;21.92;28.93;98425.75;4996630;28;956;-79
2022/09/07 11:42:11;;;;;;;;;;;;;;;21.89;29.10;98420.94;4996595;28;949;-79
2022/09/07 11:44:36;;;;;;;;;;;;;;;21.82;29.37;98424.72;4976918;28;1080;-79
2022/09/07 11:47:20;;;;;;;;;;;;;;;21.80;29.07;98419.47;4976851;28;1756;-79
2022/09/07 11:49:46;;;;;;;;;;;;;;;21.76;29.14;98418.78;4976826;28;958;-79
2022/09/07 11:52:23;;;;;;;;;;;;;;;22.00;29.25;98404.50;4961093;28;1375;-79
2022/09/07 11:54:55;;;;;;;;;;;;;;;22.44;28.33;98405.19;4976510;28;952;-79
2022/09/07 11:57:56;;;;;;;;;;;;;;;22.35;28.38;98402.94;4957597;29;1915;-79
2022/09/07 12:00:22;;;;;;;;;;;;;;;21.97;28.83;98391.22;4919011;29;1071;-78
2022/09/07 12:02:51;;;;;;;;;;;;;;;22.05;28.77;98404.00;4903371;29;987;-79
2022/09/07 12:05:31;;;;;;;;;;;;;;;22.02;28.85;98393.50;4919309;29;955;-78
2022/09/07 12:08:02;;;;;;;;;;;;;;;21.80;29.46;98396.81;4925333;29;1004;-78
2022/09/07 12:10:46;;;;;;;;;;;;;;;21.75;29.27;98394.50;4957247;29;969;-78
2022/09/07 12:13:20;;;;;;;;;;;;;;;21.79;29.15;98381.06;4957065;29;910;-79
2022/09/07 12:15:51;;;;;;;;;;;;;;;21.78;29.10;98393.63;4957094;29;1094;-79
2022/09/07 12:18:35;;;;;;;;;;;;;;;21.74;29.15;98387.25;4925077;29;1911;-79
2022/09/07 12:21:01;;;;;;;;;;;;;;;21.69;29.22;98384.91;4949438;28;1022;-78
2022/09/07 12:23:27;;;;;;;;;;;;;;;21.60;29.42;98387.53;4979401;28;965;-78
2022/09/07 12:25:53;;;;;;;;;;;;;;;21.74;29.06;98370.25;4979595;28;1005;-79
2022/09/07 12:28:24;;;;;;;;;;;;;;;22.08;29.18;98372.75;4989345;28;999;-79
2022/09/07 12:30:56;;;;;;;;;;;;;;;22.50;28.50;98380.72;5015456;28;892;-78
2022/09/07 12:33:26;;;;;;;;;;;;;;;22.03;28.88;98378.13;5021335;28;888;-79
2022/09/07 12:35:53;;;;;;;;;;;;;;;22.08;28.76;98372.75;5076037;28;943;-79
2022/09/07 12:38:19;;;;;;;;;;;;;;;21.89;29.13;98381.28;5075546;28;1914;-79
2022/09/07 12:40:45;;;;;;;;;;;;;;;21.75;29.66;98377.50;5076709;28;935;-79
2022/09/07 12:43:13;;;;;;;;;;;;;;;21.83;29.13;98383.81;5059067;28;1393;-79
2022/09/07 12:45:39;;;;;;;;;;;;;;;21.76;29.32;98383.97;5059255;28;905;-79
2022/09/07 12:48:13;;;;;;;;;;;;;;;21.74;29.22;98380.78;5076843;28;919;-79
2022/09/07 12:50:54;;;;;;;;;;;;;;;21.85;29.09;98376.47;5076949;28;912;-79
2022/09/07 12:53:26;;;;;;;;;;;;;;;21.86;29.24;98377.28;5059405;28;935;-79
2022/09/07 12:56:04;;;;;;;;;;;;;;;21.75;29.39;98386.00;5075642;28;1013;-79
2022/09/07 12:58:29;;;;;;;;;;;;;;;21.66;29.71;98385.81;5075522;28;1970;-79
2022/09/07 13:01:10;;;;;;;;;;;;;;;22.18;29.14;98387.16;5076951;28;1012;-79
2022/09/07 13:03:54;;;;;;;;;;;;;;;22.59;28.27;98384.53;5075861;28;922;-79
2022/09/07 13:06:26;;;;;;;;;;;;;;;22.26;28.47;98383.69;5076530;28;858;-79
2022/09/07 13:08:51;;;;;;;;;;;;;;;21.95;28.99;98385.97;5076592;28;918;-79